x

Central Aleutians 230nm Sw Dutch Harbor (46072) Wave Buoy

4:50pm - Sun 29th Mar 2015 All times are UTC.

  • Sig Wave height 9.2ft
  • Peak Period 7s
  • Average Period 6s
  • Wind
    18mph, 22mph gusts
  • Sea Temp 41°f
  • Air Temp 36°f
  • Sea Pressure 1006.3mb

More Historic Weather Station data

Upgrade to MSW Pro to gain access to the past 30 days of data for over 8000 Wavebouys and Weather Stations around the globe.

Join Pro

Comparision Forecast

View Surf forecast
   
Sun 03/29 4:50pm 9ft 7s 6s 18 22 mph 1006.3mb 41f 36f
3:50pm 9ft 11s 6s 20 27 mph 1005.9mb 41f 36f
2:50pm 10ft 9s 7s 20 27 mph 1005.8mb 41f 36f
1:50pm  -   -   -  22 29 mph 1005.6mb 41f 36f
12:50pm 11ft 9s 7s 22 27 mph 1005.5mb 41f 36f
11:50am 9.5ft 7s 6s 22 27 mph 1005.4mb 41f 36f
10:50am 11ft 9s 7s 25 31 mph 1005mb 41f 36f
9:50am 10.5ft 10s 6s 27 34 mph 1004.8mb 41f 36f
8:50am 11.5ft 8s 7s 25 31 mph 1004.8mb 41f 36f
7:50am  -   -   -  25 31 mph 1004.5mb 41f 37f
6:50am 13ft 8s 7s 27 34 mph 1004.1mb 41f 37f
5:50am 14.5ft 10s 7s 27 36 mph 1003.5mb 41f 37f
4:50am 13.5ft 9s 7s 27 34 mph 1003.2mb 41f 37f
3:50am 14.5ft 9s 7s 25 29 mph 1002.9mb 41f 36f
2:50am 15ft 10s 7s 27 36 mph 1002.4mb 41f 36f
1:50am 13.5ft 8s 7s 29 36 mph 1001.9mb 41f 37f
12:50am 13ft 9s 7s 29 38 mph 1001.8mb 41f 37f
Sat 03/28 11:50pm 13ft 10s 7s 29 38 mph 1001.8mb 41f 36f
10:50pm 13.5ft 10s 7s 31 40 mph 1001.6mb 41f 35f
9:50pm 13ft 9s 7s 31 38 mph 1001.2mb 41f 36f
8:50pm 12.5ft 10s 7s 29 36 mph 1001.2mb 41f 34f
7:50pm 13ft 10s 7s 27 34 mph 1000.6mb 41f 36f
6:50pm 14ft 9s 7s 29 36 mph 999.9mb 41f 36f
5:50pm 12.5ft 7s 6s 29 36 mph 999.5mb 41f 36f
4:50pm 13ft 9s 7s 31 38 mph 998.9mb 41f 36f
3:50pm 13ft 10s 7s 29 38 mph 998.5mb 41f 36f
2:50pm 15ft 10s 7s 29 36 mph 998mb 41f 36f
1:50pm 14ft 10s 7s 31 38 mph 997.6mb 41f 35f
12:50pm 14ft 10s 7s 29 38 mph 997.3mb 41f 35f
11:50am 13ft 11s 7s 31 36 mph 997mb 41f 35f
10:50am 14.5ft 11s 7s 29 38 mph 996.6mb 41f 35f
9:50am 12.5ft 11s 7s 29 36 mph 996.2mb 41f 34f
8:50am 13.5ft 10s 7s 29 38 mph 995.7mb 41f 34f
7:50am 12.5ft 11s 7s 31 38 mph 995.1mb 41f 35f
6:50am 14ft 11s 7s 31 36 mph 994.4mb 41f 35f
5:50am 14ft 10s 7s 31 38 mph 993.5mb 41f 35f
4:50am 13ft 10s 7s 34 40 mph 992.7mb 41f 35f
3:50am 12.5ft 10s 7s 29 36 mph 992.1mb 41f 36f
2:50am 12ft 7s 6s 29 36 mph 991.6mb 41f 36f
1:50am 12.5ft 8s 7s 27 34 mph 991.4mb 41f 36f
12:50am 12ft 9s 6s 27 34 mph 991.3mb 41f 36f
Fri 03/27 11:50pm 13ft 10s 7s 27 31 mph 991.1mb 41f 36f
10:50pm 11ft 11s 7s 25 29 mph 990.9mb 41f 36f
9:50pm 12ft 10s 7s 27 34 mph 990.6mb 41f 36f
8:50pm 10ft 11s 6s 29 34 mph 990.2mb 41f 37f
7:50pm 10.5ft 10s 6s 25 29 mph 989.9mb 41f 36f
6:50pm 10ft 10s 6s 25 29 mph 989.6mb 41f 36f
5:50pm 11ft 10s 6s 27 34 mph 989.4mb 41f 36f
4:50pm 11ft 10s 6s 29 36 mph 989.1mb 41f 35f
3:50pm 11ft 10s 6s 29 34 mph 989.1mb 41f 35f
2:50pm 11ft 9s 6s 25 31 mph 989.6mb 41f 35f
1:50pm 11.5ft 10s 7s 25 31 mph 989.6mb 41f 35f
12:50pm 11ft 10s 6s 25 31 mph 990mb 41f 35f
11:50am 8.5ft 9s 6s 25 31 mph 990mb 41f 35f
10:50am 9ft 10s 6s 25 31 mph 990.3mb 41f 35f
9:50am 7.5ft 10s 6s 25 31 mph 990.5mb 41f 36f
8:50am 7.5ft 11s 6s 25 29 mph 990.9mb 41f 36f
7:50am 7ft 10s 6s 22 27 mph 991.3mb 41f 36f
6:50am 8ft 10s 6s 22 27 mph 991.5mb 41f 36f
5:50am 8ft 10s 6s 20 25 mph 991.8mb 41f 36f
4:50am 8ft 10s 6s 20 25 mph 992mb 41f 36f
3:50am 8.5ft 10s 6s 20 25 mph 992.3mb 41f 36f
2:50am 8.5ft 10s 6s 18 22 mph 992.8mb 41f 36f
1:50am 9ft 9s 6s 20 25 mph 993.4mb 41f 35f
12:50am 9ft 10s 7s 20 25 mph 994mb 41f 35f
Thu 03/26 11:50pm 10ft 10s 7s 18 22 mph 994.8mb 41f 35f
10:50pm 8.5ft 11s 6s 18 22 mph 995.1mb 41f 35f
9:50pm 8ft 11s 7s 20 25 mph 995.4mb 41f 35f
8:50pm 9.5ft 10s 7s 18 25 mph 995.9mb 41f 35f
7:50pm 9ft 11s 7s 16 20 mph 996.3mb 41f 35f
6:50pm 9ft 11s 6s 20 27 mph 996.4mb 41f 35f
5:50pm 10ft 10s 7s 18 25 mph 996.6mb 41f 35f
4:50pm 10ft 10s 7s 16 20 mph 996.9mb 41f 35f
3:50pm 9.5ft 10s 6s 16 18 mph 997.2mb 40f 35f
2:50pm 10.5ft 11s 7s 18 22 mph 997.6mb 40f 35f
1:50pm 10.5ft 11s 7s 16 20 mph 998.1mb 40f 34f
12:50pm 12.5ft 11s 7s 20 22 mph 998.5mb 41f 34f
11:50am 11ft 11s 7s 18 22 mph 999.1mb 40f 34f
10:50am 12ft 11s 7s 22 27 mph 999.1mb 41f 35f
9:50am 11.5ft 11s 8s 20 27 mph 999.6mb 41f 35f
8:50am 10ft 11s 7s 22 29 mph 999.7mb 41f 35f
7:50am 10ft 11s 7s 22 29 mph 999.6mb 41f 35f
6:50am 11ft 12s 7s 25 29 mph 999.9mb 41f 35f
5:50am 12ft 11s 7s 25 29 mph 999.8mb 41f 35f
4:50am 13ft 11s 7s 27 31 mph 999.9mb 41f 35f
3:50am 12ft 11s 7s 27 36 mph 1000mb 41f 36f
2:50am 15ft 10s 7s 27 31 mph 1000.3mb 41f 36f
1:50am 12ft 11s 6s 27 31 mph 1000.5mb 41f 36f
12:50am 13ft 11s 7s 27 31 mph 1000.7mb 41f 35f
Wed 03/25 11:50pm 14ft 10s 7s 27 36 mph 1000.9mb 41f 35f
10:50pm 12ft 10s 7s 27 34 mph 1001mb 41f 36f
9:50pm 12ft 8s 7s 25 31 mph 1001.3mb 41f 36f
8:50pm 11ft 9s 6s 27 34 mph 1001.2mb 41f 36f
7:50pm 11ft 10s 7s 27 31 mph 1001mb 41f 37f
6:50pm 11ft 11s 6s 22 27 mph 1001.3mb 41f 37f